sensor_id;sensor_type;location;lat;lon;timestamp;temperature;humidity
6518;DHT22;3292;48.944;9.240;2023-02-12T00:01:10;5.00;99.90
6518;DHT22;3292;48.944;9.240;2023-02-12T00:03:39;5.00;99.90
6518;DHT22;3292;48.944;9.240;2023-02-12T00:06:07;4.90;99.90
6518;DHT22;3292;48.944;9.240;2023-02-12T00:08:35;5.00;99.90
6518;DHT22;3292;48.944;9.240;2023-02-12T00:11:07;5.00;99.90
6518;DHT22;3292;48.944;9.240;2023-02-12T00:13:34;4.90;99.90
6518;DHT22;3292;48.944;9.240;2023-02-12T00:16:03;4.90;99.90
6518;DHT22;3292;48.944;9.240;2023-02-12T00:18:30;5.00;99.90
6518;DHT22;3292;48.944;9.240;2023-02-12T00:21:00;5.00;99.90
6518;DHT22;3292;48.944;9.240;2023-02-12T00:23:26;4.90;99.90
6518;DHT22;3292;48.944;9.240;2023-02-12T00:25:53;4.90;99.90
6518;DHT22;3292;48.944;9.240;2023-02-12T00:28:21;4.90;99.90
6518;DHT22;3292;48.944;9.240;2023-02-12T00:30:48;4.90;99.90
6518;DHT22;3292;48.944;9.240;2023-02-12T00:33:15;4.90;99.90
6518;DHT22;3292;48.944;9.240;2023-02-12T00:35:41;4.90;99.90
6518;DHT22;3292;48.944;9.240;2023-02-12T00:38:10;4.90;99.90
6518;DHT22;3292;48.944;9.240;2023-02-12T00:40:36;4.90;99.90
6518;DHT22;3292;48.944;9.240;2023-02-12T00:43:03;5.00;99.90
6518;DHT22;3292;48.944;9.240;2023-02-12T00:45:32;4.90;99.90
6518;DHT22;3292;48.944;9.240;2023-02-12T00:47:59;4.90;99.90
6518;DHT22;3292;48.944;9.240;2023-02-12T00:50:26;4.80;99.90
6518;DHT22;3292;48.944;9.240;2023-02-12T00:52:52;4.80;99.90
6518;DHT22;3292;48.944;9.240;2023-02-12T00:55:21;4.80;99.90
6518;DHT22;3292;48.944;9.240;2023-02-12T00:57:48;4.80;99.90
6518;DHT22;3292;48.944;9.240;2023-02-12T01:00:15;4.90;99.90
6518;DHT22;3292;48.944;9.240;2023-02-12T01:02:42;5.00;99.90
6518;DHT22;3292;48.944;9.240;2023-02-12T01:05:09;4.90;99.90
6518;DHT22;3292;48.944;9.240;2023-02-12T01:07:36;4.90;99.90
6518;DHT22;3292;48.944;9.240;2023-02-12T01:10:06;4.80;99.90
6518;DHT22;3292;48.944;9.240;2023-02-12T01:12:37;4.80;99.90
6518;DHT22;3292;48.944;9.240;2023-02-12T01:15:05;4.80;99.90
6518;DHT22;3292;48.944;9.240;2023-02-12T01:17:31;4.80;99.90
6518;DHT22;3292;48.944;9.240;2023-02-12T01:19:58;4.70;99.90
6518;DHT22;3292;48.944;9.240;2023-02-12T01:22:25;4.80;99.90
6518;DHT22;3292;48.944;9.240;2023-02-12T01:24:52;4.90;99.90
6518;DHT22;3292;48.944;9.240;2023-02-12T01:27:19;4.90;99.90
6518;DHT22;3292;48.944;9.240;2023-02-12T01:29:47;4.90;99.90
6518;DHT22;3292;48.944;9.240;2023-02-12T01:32:13;4.90;99.90
6518;DHT22;3292;48.944;9.240;2023-02-12T01:34:40;4.80;99.90
6518;DHT22;3292;48.944;9.240;2023-02-12T01:37:07;4.80;99.90
6518;DHT22;3292;48.944;9.240;2023-02-12T01:39:34;4.80;99.90
6518;DHT22;3292;48.944;9.240;2023-02-12T01:42:01;4.80;99.90
6518;DHT22;3292;48.944;9.240;2023-02-12T01:44:30;4.70;99.90
6518;DHT22;3292;48.944;9.240;2023-02-12T01:46:59;4.70;99.90
6518;DHT22;3292;48.944;9.240;2023-02-12T01:49:30;4.80;99.90
6518;DHT22;3292;48.944;9.240;2023-02-12T01:52:04;4.80;99.90
6518;DHT22;3292;48.944;9.240;2023-02-12T01:54:33;4.80;99.90
6518;DHT22;3292;48.944;9.240;2023-02-12T01:57:02;4.80;99.90
6518;DHT22;3292;48.944;9.240;2023-02-12T01:59:30;4.70;99.90
6518;DHT22;3292;48.944;9.240;2023-02-12T02:01:59;4.70;99.90
6518;DHT22;3292;48.944;9.240;2023-02-12T02:04:28;4.70;99.90
6518;DHT22;3292;48.944;9.240;2023-02-12T02:06:58;4.80;99.90
6518;DHT22;3292;48.944;9.240;2023-02-12T02:09:27;4.80;99.90
6518;DHT22;3292;48.944;9.240;2023-02-12T02:11:55;4.80;99.90
6518;DHT22;3292;48.944;9.240;2023-02-12T02:14:40;4.80;99.90
6518;DHT22;3292;48.944;9.240;2023-02-12T02:17:19;4.70;99.90
6518;DHT22;3292;48.944;9.240;2023-02-12T02:20:12;4.70;99.90
6518;DHT22;3292;48.944;9.240;2023-02-12T02:22:47;4.70;99.90
6518;DHT22;3292;48.944;9.240;2023-02-12T02:25:42;4.70;99.90
6518;DHT22;3292;48.944;9.240;2023-02-12T02:28:32;4.70;99.90
6518;DHT22;3292;48.944;9.240;2023-02-12T02:31:10;4.70;99.90
6518;DHT22;3292;48.944;9.240;2023-02-12T02:33:45;4.70;99.90
6518;DHT22;3292;48.944;9.240;2023-02-12T02:36:24;4.60;99.90
6518;DHT22;3292;48.944;9.240;2023-02-12T02:38:56;4.60;99.90
6518;DHT22;3292;48.944;9.240;2023-02-12T02:41:30;4.60;99.90
6518;DHT22;3292;48.944;9.240;2023-02-12T02:44:04;4.60;99.90
6518;DHT22;3292;48.944;9.240;2023-02-12T02:46:37;4.60;99.90
6518;DHT22;3292;48.944;9.240;2023-02-12T02:49:09;4.60;99.90
6518;DHT22;3292;48.944;9.240;2023-02-12T02:51:40;4.70;99.90
6518;DHT22;3292;48.944;9.240;2023-02-12T02:54:12;4.70;99.90
6518;DHT22;3292;48.944;9.240;2023-02-12T02:56:45;4.70;99.90
6518;DHT22;3292;48.944;9.240;2023-02-12T02:59:17;4.60;99.90
6518;DHT22;3292;48.944;9.240;2023-02-12T03:01:50;4.50;99.90
6518;DHT22;3292;48.944;9.240;2023-02-12T03:04:21;4.50;99.90
6518;DHT22;3292;48.944;9.240;2023-02-12T03:06:56;4.40;99.90
6518;DHT22;3292;48.944;9.240;2023-02-12T03:09:30;4.40;99.90
6518;DHT22;3292;48.944;9.240;2023-02-12T03:12:01;4.50;99.90
6518;DHT22;3292;48.944;9.240;2023-02-12T03:14:31;4.50;99.90
6518;DHT22;3292;48.944;9.240;2023-02-12T03:17:04;4.50;99.90
6518;DHT22;3292;48.944;9.240;2023-02-12T03:19:36;4.50;99.90
6518;DHT22;3292;48.944;9.240;2023-02-12T03:22:08;4.50;99.90
6518;DHT22;3292;48.944;9.240;2023-02-12T03:24:39;4.50;99.90
6518;DHT22;3292;48.944;9.240;2023-02-12T03:27:09;4.40;99.90
6518;DHT22;3292;48.944;9.240;2023-02-12T03:29:38;4.50;99.90
6518;DHT22;3292;48.944;9.240;2023-02-12T03:32:16;4.50;99.90
6518;DHT22;3292;48.944;9.240;2023-02-12T03:34:49;4.50;99.90
6518;DHT22;3292;48.944;9.240;2023-02-12T03:37:20;4.50;99.90
6518;DHT22;3292;48.944;9.240;2023-02-12T03:39:54;4.60;99.90
6518;DHT22;3292;48.944;9.240;2023-02-12T03:42:31;4.60;99.90
6518;DHT22;3292;48.944;9.240;2023-02-12T03:45:03;4.60;99.90
6518;DHT22;3292;48.944;9.240;2023-02-12T03:47:40;4.60;99.90
6518;DHT22;3292;48.944;9.240;2023-02-12T03:50:12;4.60;99.90
6518;DHT22;3292;48.944;9.240;2023-02-12T03:52:41;4.60;99.90
6518;DHT22;3292;48.944;9.240;2023-02-12T03:55:09;4.50;99.90
6518;DHT22;3292;48.944;9.240;2023-02-12T03:57:39;4.50;99.90
6518;DHT22;3292;48.944;9.240;2023-02-12T04:00:10;4.50;99.90
6518;DHT22;3292;48.944;9.240;2023-02-12T04:02:39;4.50;99.90
6518;DHT22;3292;48.944;9.240;2023-02-12T04:05:14;4.40;99.90
6518;DHT22;3292;48.944;9.240;2023-02-12T04:07:41;4.40;99.90
6518;DHT22;3292;48.944;9.240;2023-02-12T04:10:09;4.50;99.90
6518;DHT22;3292;48.944;9.240;2023-02-12T04:12:40;4.50;99.90
6518;DHT22;3292;48.944;9.240;2023-02-12T04:15:21;4.50;99.90
6518;DHT22;3292;48.944;9.240;2023-02-12T04:18:02;4.50;99.90
6518;DHT22;3292;48.944;9.240;2023-02-12T04:20:37;4.60;99.90
6518;DHT22;3292;48.944;9.240;2023-02-12T04:23:13;4.50;99.90
6518;DHT22;3292;48.944;9.240;2023-02-12T04:25:51;4.60;99.90
6518;DHT22;3292;48.944;9.240;2023-02-12T04:28:26;4.50;99.90
6518;DHT22;3292;48.944;9.240;2023-02-12T04:30:57;4.60;99.90
6518;DHT22;3292;48.944;9.240;2023-02-12T04:33:31;4.60;99.90
6518;DHT22;3292;48.944;9.240;2023-02-12T04:36:02;4.60;99.90
6518;DHT22;3292;48.944;9.240;2023-02-12T04:38:34;4.50;99.90
6518;DHT22;3292;48.944;9.240;2023-02-12T04:41:04;4.60;99.90
6518;DHT22;3292;48.944;9.240;2023-02-12T04:43:33;4.60;99.90
6518;DHT22;3292;48.944;9.240;2023-02-12T04:46:01;4.60;99.90
6518;DHT22;3292;48.944;9.240;2023-02-12T04:48:30;4.60;99.90
6518;DHT22;3292;48.944;9.240;2023-02-12T04:50:59;4.60;99.90
6518;DHT22;3292;48.944;9.240;2023-02-12T04:53:26;4.70;99.90
6518;DHT22;3292;48.944;9.240;2023-02-12T04:55:53;4.60;99.90
6518;DHT22;3292;48.944;9.240;2023-02-12T04:58:19;4.50;99.90
6518;DHT22;3292;48.944;9.240;2023-02-12T05:00:46;4.50;99.90
6518;DHT22;3292;48.944;9.240;2023-02-12T05:03:13;4.50;99.90
6518;DHT22;3292;48.944;9.240;2023-02-12T05:05:41;4.40;99.90
6518;DHT22;3292;48.944;9.240;2023-02-12T05:08:08;4.40;99.90
6518;DHT22;3292;48.944;9.240;2023-02-12T05:10:35;4.50;99.90
6518;DHT22;3292;48.944;9.240;2023-02-12T05:13:01;4.40;99.90
6518;DHT22;3292;48.944;9.240;2023-02-12T05:15:28;4.50;99.90
6518;DHT22;3292;48.944;9.240;2023-02-12T05:17:55;4.40;99.90
6518;DHT22;3292;48.944;9.240;2023-02-12T05:20:22;4.50;99.90
6518;DHT22;3292;48.944;9.240;2023-02-12T05:22:52;4.50;99.90
6518;DHT22;3292;48.944;9.240;2023-02-12T05:25:19;4.50;99.90
6518;DHT22;3292;48.944;9.240;2023-02-12T05:27:45;4.40;99.90
6518;DHT22;3292;48.944;9.240;2023-02-12T05:30:13;4.50;99.90
6518;DHT22;3292;48.944;9.240;2023-02-12T05:32:40;4.40;99.90
6518;DHT22;3292;48.944;9.240;2023-02-12T05:35:07;4.40;99.90
6518;DHT22;3292;48.944;9.240;2023-02-12T05:37:34;4.40;99.90
6518;DHT22;3292;48.944;9.240;2023-02-12T05:40:03;4.40;99.90
6518;DHT22;3292;48.944;9.240;2023-02-12T05:42:30;4.40;99.90
6518;DHT22;3292;48.944;9.240;2023-02-12T05:44:57;4.40;99.90
6518;DHT22;3292;48.944;9.240;2023-02-12T05:47:24;4.50;99.90
6518;DHT22;3292;48.944;9.240;2023-02-12T05:49:51;4.50;99.90
6518;DHT22;3292;48.944;9.240;2023-02-12T05:52:18;4.60;99.90
6518;DHT22;3292;48.944;9.240;2023-02-12T05:54:47;4.50;99.90
6518;DHT22;3292;48.944;9.240;2023-02-12T05:57:15;4.50;99.90
6518;DHT22;3292;48.944;9.240;2023-02-12T05:59:42;4.50;99.90
6518;DHT22;3292;48.944;9.240;2023-02-12T06:02:09;4.50;99.90
6518;DHT22;3292;48.944;9.240;2023-02-12T06:04:36;4.50;99.90
6518;DHT22;3292;48.944;9.240;2023-02-12T06:07:02;4.50;99.90
6518;DHT22;3292;48.944;9.240;2023-02-12T06:09:29;4.40;99.90
6518;DHT22;3292;48.944;9.240;2023-02-12T06:11:56;4.40;99.90
6518;DHT22;3292;48.944;9.240;2023-02-12T06:14:24;4.50;99.90
6518;DHT22;3292;48.944;9.240;2023-02-12T06:16:51;4.50;99.90
6518;DHT22;3292;48.944;9.240;2023-02-12T06:19:18;4.40;99.90
6518;DHT22;3292;48.944;9.240;2023-02-12T06:21:46;4.40;99.90
6518;DHT22;3292;48.944;9.240;2023-02-12T06:24:14;4.40;99.90
6518;DHT22;3292;48.944;9.240;2023-02-12T06:26:42;4.40;99.90
6518;DHT22;3292;48.944;9.240;2023-02-12T06:29:08;4.30;99.90
6518;DHT22;3292;48.944;9.240;2023-02-12T06:31:37;4.30;99.90
6518;DHT22;3292;48.944;9.240;2023-02-12T06:34:05;4.40;99.90
6518;DHT22;3292;48.944;9.240;2023-02-12T06:36:32;4.40;99.90
6518;DHT22;3292;48.944;9.240;2023-02-12T06:39:00;4.40;99.90
6518;DHT22;3292;48.944;9.240;2023-02-12T06:41:27;4.40;99.90
6518;DHT22;3292;48.944;9.240;2023-02-12T06:43:54;4.40;99.90
6518;DHT22;3292;48.944;9.240;2023-02-12T06:46:21;4.30;99.90
6518;DHT22;3292;48.944;9.240;2023-02-12T06:48:52;4.30;99.90
6518;DHT22;3292;48.944;9.240;2023-02-12T06:51:18;4.30;99.90
6518;DHT22;3292;48.944;9.240;2023-02-12T06:53:46;4.30;99.90
6518;DHT22;3292;48.944;9.240;2023-02-12T06:56:13;4.20;99.90
6518;DHT22;3292;48.944;9.240;2023-02-12T06:58:42;4.20;99.90
6518;DHT22;3292;48.944;9.240;2023-02-12T07:01:11;4.20;99.90
6518;DHT22;3292;48.944;9.240;2023-02-12T07:03:38;4.30;99.90
6518;DHT22;3292;48.944;9.240;2023-02-12T07:06:07;4.20;99.90
6518;DHT22;3292;48.944;9.240;2023-02-12T07:08:34;4.20;99.90
6518;DHT22;3292;48.944;9.240;2023-02-12T07:11:02;4.30;99.90
6518;DHT22;3292;48.944;9.240;2023-02-12T07:13:29;4.30;99.90
6518;DHT22;3292;48.944;9.240;2023-02-12T07:15:55;4.30;99.90
6518;DHT22;3292;48.944;9.240;2023-02-12T07:18:22;4.40;99.90
6518;DHT22;3292;48.944;9.240;2023-02-12T07:20:49;4.40;99.90
6518;DHT22;3292;48.944;9.240;2023-02-12T07:23:17;4.40;99.90
6518;DHT22;3292;48.944;9.240;2023-02-12T07:25:53;4.40;99.90
6518;DHT22;3292;48.944;9.240;2023-02-12T07:28:20;4.40;99.90
6518;DHT22;3292;48.944;9.240;2023-02-12T07:30:47;4.40;99.90
6518;DHT22;3292;48.944;9.240;2023-02-12T07:33:14;4.50;99.90
6518;DHT22;3292;48.944;9.240;2023-02-12T07:35:41;4.50;99.90
6518;DHT22;3292;48.944;9.240;2023-02-12T07:38:08;4.60;99.90
6518;DHT22;3292;48.944;9.240;2023-02-12T07:40:36;4.50;99.90
6518;DHT22;3292;48.944;9.240;2023-02-12T07:43:03;4.60;99.90
6518;DHT22;3292;48.944;9.240;2023-02-12T07:45:29;4.60;99.90
6518;DHT22;3292;48.944;9.240;2023-02-12T07:47:56;4.60;99.90
6518;DHT22;3292;48.944;9.240;2023-02-12T07:50:23;4.60;99.90
6518;DHT22;3292;48.944;9.240;2023-02-12T07:52:50;4.80;99.90
6518;DHT22;3292;48.944;9.240;2023-02-12T07:55:17;4.70;99.90
6518;DHT22;3292;48.944;9.240;2023-02-12T07:57:45;4.70;99.90
6518;DHT22;3292;48.944;9.240;2023-02-12T08:00:13;4.80;99.90
6518;DHT22;3292;48.944;9.240;2023-02-12T08:02:40;4.90;99.90
6518;DHT22;3292;48.944;9.240;2023-02-12T08:05:07;4.90;99.90
6518;DHT22;3292;48.944;9.240;2023-02-12T08:07:34;5.00;99.90
6518;DHT22;3292;48.944;9.240;2023-02-12T08:10:01;5.00;99.90
6518;DHT22;3292;48.944;9.240;2023-02-12T08:12:27;5.00;99.90
6518;DHT22;3292;48.944;9.240;2023-02-12T08:14:55;5.00;99.90
6518;DHT22;3292;48.944;9.240;2023-02-12T08:17:22;5.10;99.90
6518;DHT22;3292;48.944;9.240;2023-02-12T08:19:49;5.10;99.90
6518;DHT22;3292;48.944;9.240;2023-02-12T08:22:16;5.20;99.90
6518;DHT22;3292;48.944;9.240;2023-02-12T08:24:43;5.20;99.90
6518;DHT22;3292;48.944;9.240;2023-02-12T08:27:10;5.20;99.90
6518;DHT22;3292;48.944;9.240;2023-02-12T08:29:36;5.20;99.90
6518;DHT22;3292;48.944;9.240;2023-02-12T08:32:05;5.30;99.90
6518;DHT22;3292;48.944;9.240;2023-02-12T08:34:35;5.20;99.90
6518;DHT22;3292;48.944;9.240;2023-02-12T08:37:04;5.30;99.90
6518;DHT22;3292;48.944;9.240;2023-02-12T08:39:31;5.30;99.90
6518;DHT22;3292;48.944;9.240;2023-02-12T08:41:58;5.40;99.90
6518;DHT22;3292;48.944;9.240;2023-02-12T08:44:26;5.40;99.90
6518;DHT22;3292;48.944;9.240;2023-02-12T08:46:53;5.50;99.90
6518;DHT22;3292;48.944;9.240;2023-02-12T08:49:23;5.50;99.90
6518;DHT22;3292;48.944;9.240;2023-02-12T08:51:52;5.40;99.90
6518;DHT22;3292;48.944;9.240;2023-02-12T08:54:20;5.40;99.90
6518;DHT22;3292;48.944;9.240;2023-02-12T08:56:48;5.40;99.90
6518;DHT22;3292;48.944;9.240;2023-02-12T08:59:16;5.60;99.90
6518;DHT22;3292;48.944;9.240;2023-02-12T09:01:43;5.60;99.90
6518;DHT22;3292;48.944;9.240;2023-02-12T09:04:13;5.70;99.90
6518;DHT22;3292;48.944;9.240;2023-02-12T09:06:44;5.70;99.90
6518;DHT22;3292;48.944;9.240;2023-02-12T09:09:12;5.80;99.90
6518;DHT22;3292;48.944;9.240;2023-02-12T09:11:39;5.90;99.90
6518;DHT22;3292;48.944;9.240;2023-02-12T09:14:09;5.90;99.90
6518;DHT22;3292;48.944;9.240;2023-02-12T09:16:36;6.00;99.90
6518;DHT22;3292;48.944;9.240;2023-02-12T09:19:04;6.00;99.90
6518;DHT22;3292;48.944;9.240;2023-02-12T09:21:31;6.00;99.90
6518;DHT22;3292;48.944;9.240;2023-02-12T09:24:00;6.00;99.90
6518;DHT22;3292;48.944;9.240;2023-02-12T09:26:27;6.10;99.90
6518;DHT22;3292;48.944;9.240;2023-02-12T09:28:54;6.20;99.90
6518;DHT22;3292;48.944;9.240;2023-02-12T09:31:22;6.20;99.90
6518;DHT22;3292;48.944;9.240;2023-02-12T09:33:51;6.30;99.90
6518;DHT22;3292;48.944;9.240;2023-02-12T09:36:18;6.40;99.90
6518;DHT22;3292;48.944;9.240;2023-02-12T09:38:46;6.50;99.90
6518;DHT22;3292;48.944;9.240;2023-02-12T09:44:19;6.80;99.90
6518;DHT22;3292;48.944;9.240;2023-02-12T09:46:51;7.00;99.90
6518;DHT22;3292;48.944;9.240;2023-02-12T09:49:27;7.10;99.90
6518;DHT22;3292;48.944;9.240;2023-02-12T09:51:56;7.10;99.90
6518;DHT22;3292;48.944;9.240;2023-02-12T09:54:28;7.10;99.90
6518;DHT22;3292;48.944;9.240;2023-02-12T09:57:05;7.10;99.90
6518;DHT22;3292;48.944;9.240;2023-02-12T09:59:35;7.20;99.90
6518;DHT22;3292;48.944;9.240;2023-02-12T10:02:08;7.20;99.90
6518;DHT22;3292;48.944;9.240;2023-02-12T10:04:38;7.30;99.90
6518;DHT22;3292;48.944;9.240;2023-02-12T10:07:12;7.30;99.90
6518;DHT22;3292;48.944;9.240;2023-02-12T10:09:59;7.30;99.90
6518;DHT22;3292;48.944;9.240;2023-02-12T10:12:35;7.40;99.90
6518;DHT22;3292;48.944;9.240;2023-02-12T10:15:14;7.50;99.90
6518;DHT22;3292;48.944;9.240;2023-02-12T10:17:46;7.60;99.90
6518;DHT22;3292;48.944;9.240;2023-02-12T10:20:34;7.60;99.90
6518;DHT22;3292;48.944;9.240;2023-02-12T10:23:19;7.80;99.90
6518;DHT22;3292;48.944;9.240;2023-02-12T10:25:49;7.90;99.90
6518;DHT22;3292;48.944;9.240;2023-02-12T10:28:24;8.00;99.90
6518;DHT22;3292;48.944;9.240;2023-02-12T10:30:54;8.20;99.90
6518;DHT22;3292;48.944;9.240;2023-02-12T10:33:25;8.20;99.90
6518;DHT22;3292;48.944;9.240;2023-02-12T10:35:58;8.30;99.90
6518;DHT22;3292;48.944;9.240;2023-02-12T10:38:28;8.30;99.90
6518;DHT22;3292;48.944;9.240;2023-02-12T10:40:55;8.40;99.90
6518;DHT22;3292;48.944;9.240;2023-02-12T10:43:28;8.30;99.90
6518;DHT22;3292;48.944;9.240;2023-02-12T10:45:55;8.30;99.90
6518;DHT22;3292;48.944;9.240;2023-02-12T10:48:23;8.30;99.90
6518;DHT22;3292;48.944;9.240;2023-02-12T10:51:01;8.30;99.90
6518;DHT22;3292;48.944;9.240;2023-02-12T10:53:31;8.20;99.90
6518;DHT22;3292;48.944;9.240;2023-02-12T10:56:10;8.10;99.90
6518;DHT22;3292;48.944;9.240;2023-02-12T10:58:41;8.20;99.90
6518;DHT22;3292;48.944;9.240;2023-02-12T11:01:16;8.30;99.90
6518;DHT22;3292;48.944;9.240;2023-02-12T11:03:43;8.30;99.90
6518;DHT22;3292;48.944;9.240;2023-02-12T11:06:13;8.30;99.90
6518;DHT22;3292;48.944;9.240;2023-02-12T11:08:40;8.30;99.90
6518;DHT22;3292;48.944;9.240;2023-02-12T11:11:10;8.30;99.90
6518;DHT22;3292;48.944;9.240;2023-02-12T11:13:43;8.30;99.90
6518;DHT22;3292;48.944;9.240;2023-02-12T11:16:10;8.30;99.90
6518;DHT22;3292;48.944;9.240;2023-02-12T11:18:38;8.30;99.90
6518;DHT22;3292;48.944;9.240;2023-02-12T11:21:06;8.30;99.90
6518;DHT22;3292;48.944;9.240;2023-02-12T11:23:35;8.30;99.90
6518;DHT22;3292;48.944;9.240;2023-02-12T11:26:05;8.40;99.90
6518;DHT22;3292;48.944;9.240;2023-02-12T11:28:34;8.30;99.90
6518;DHT22;3292;48.944;9.240;2023-02-12T11:31:17;8.30;99.90
6518;DHT22;3292;48.944;9.240;2023-02-12T11:33:45;8.40;99.90
6518;DHT22;3292;48.944;9.240;2023-02-12T11:36:17;8.50;99.90
6518;DHT22;3292;48.944;9.240;2023-02-12T11:38:51;8.50;99.90
6518;DHT22;3292;48.944;9.240;2023-02-12T11:41:23;8.50;99.90
6518;DHT22;3292;48.944;9.240;2023-02-12T11:43:50;8.60;99.90
6518;DHT22;3292;48.944;9.240;2023-02-12T11:46:21;8.60;99.90
6518;DHT22;3292;48.944;9.240;2023-02-12T11:48:50;8.70;99.90
6518;DHT22;3292;48.944;9.240;2023-02-12T11:51:20;8.80;99.90
6518;DHT22;3292;48.944;9.240;2023-02-12T11:53:49;8.70;99.90
6518;DHT22;3292;48.944;9.240;2023-02-12T11:56:17;8.80;99.90
6518;DHT22;3292;48.944;9.240;2023-02-12T11:58:45;8.80;99.90
6518;DHT22;3292;48.944;9.240;2023-02-12T12:01:16;8.90;99.90
6518;DHT22;3292;48.944;9.240;2023-02-12T12:03:51;8.90;99.90
6518;DHT22;3292;48.944;9.240;2023-02-12T12:06:35;8.90;99.90
6518;DHT22;3292;48.944;9.240;2023-02-12T12:09:09;9.00;99.90
6518;DHT22;3292;48.944;9.240;2023-02-12T12:11:42;9.00;99.90
6518;DHT22;3292;48.944;9.240;2023-02-12T12:14:16;9.00;99.90
6518;DHT22;3292;48.944;9.240;2023-02-12T12:16:51;9.00;99.90
6518;DHT22;3292;48.944;9.240;2023-02-12T12:19:44;9.10;99.90
6518;DHT22;3292;48.944;9.240;2023-02-12T12:22:42;9.10;99.90
6518;DHT22;3292;48.944;9.240;2023-02-12T12:25:17;9.20;99.90
6518;DHT22;3292;48.944;9.240;2023-02-12T12:27:57;9.30;99.90
6518;DHT22;3292;48.944;9.240;2023-02-12T12:30:50;9.40;99.90
6518;DHT22;3292;48.944;9.240;2023-02-12T12:33:25;9.40;99.90
6518;DHT22;3292;48.944;9.240;2023-02-12T12:36:06;9.40;99.90
6518;DHT22;3292;48.944;9.240;2023-02-12T12:38:46;9.50;99.90
6518;DHT22;3292;48.944;9.240;2023-02-12T12:41:23;9.50;99.90
6518;DHT22;3292;48.944;9.240;2023-02-12T12:44:02;9.40;99.90
6518;DHT22;3292;48.944;9.240;2023-02-12T12:46:50;9.50;99.90
6518;DHT22;3292;48.944;9.240;2023-02-12T12:52:28;9.40;99.90
6518;DHT22;3292;48.944;9.240;2023-02-12T12:55:15;9.40;99.90
6518;DHT22;3292;48.944;9.240;2023-02-12T12:57:52;9.50;99.90
6518;DHT22;3292;48.944;9.240;2023-02-12T13:00:43;9.70;99.90
6518;DHT22;3292;48.944;9.240;2023-02-12T13:09:37;9.80;99.90
6518;DHT22;3292;48.944;9.240;2023-02-12T13:12:27;9.70;99.90
6518;DHT22;3292;48.944;9.240;2023-02-12T13:15:17;9.70;99.90
6518;DHT22;3292;48.944;9.240;2023-02-12T13:17:52;9.60;99.90
6518;DHT22;3292;48.944;9.240;2023-02-12T13:20:37;9.60;99.90
6518;DHT22;3292;48.944;9.240;2023-02-12T13:23:13;9.60;99.90
6518;DHT22;3292;48.944;9.240;2023-02-12T13:25:57;9.70;99.90
6518;DHT22;3292;48.944;9.240;2023-02-12T13:28:33;9.70;99.90
6518;DHT22;3292;48.944;9.240;2023-02-12T13:31:05;9.50;99.90
6518;DHT22;3292;48.944;9.240;2023-02-12T13:33:40;9.60;99.90
6518;DHT22;3292;48.944;9.240;2023-02-12T13:36:12;9.60;99.90
6518;DHT22;3292;48.944;9.240;2023-02-12T13:38:48;9.70;99.90
6518;DHT22;3292;48.944;9.240;2023-02-12T13:41:20;9.80;99.90
6518;DHT22;3292;48.944;9.240;2023-02-12T13:44:04;9.80;99.90
6518;DHT22;3292;48.944;9.240;2023-02-12T13:46:40;9.80;99.90
6518;DHT22;3292;48.944;9.240;2023-02-12T13:49:19;9.80;99.90
6518;DHT22;3292;48.944;9.240;2023-02-12T13:51:52;9.70;99.90
6518;DHT22;3292;48.944;9.240;2023-02-12T13:54:46;9.60;99.90
6518;DHT22;3292;48.944;9.240;2023-02-12T13:57:23;9.50;99.90
6518;DHT22;3292;48.944;9.240;2023-02-12T14:00:01;9.50;99.90
6518;DHT22;3292;48.944;9.240;2023-02-12T14:02:46;9.50;99.90
6518;DHT22;3292;48.944;9.240;2023-02-12T14:05:22;9.50;99.90
6518;DHT22;3292;48.944;9.240;2023-02-12T14:07:57;9.60;99.90
6518;DHT22;3292;48.944;9.240;2023-02-12T14:13:25;9.50;99.90
6518;DHT22;3292;48.944;9.240;2023-02-12T14:16:18;9.40;99.90
6518;DHT22;3292;48.944;9.240;2023-02-12T14:18:48;9.50;99.90
6518;DHT22;3292;48.944;9.240;2023-02-12T14:21:43;9.40;99.90
6518;DHT22;3292;48.944;9.240;2023-02-12T14:27:32;9.50;99.90
6518;DHT22;3292;48.944;9.240;2023-02-12T14:30:27;9.40;99.90
6518;DHT22;3292;48.944;9.240;2023-02-12T14:32:56;9.40;99.90
6518;DHT22;3292;48.944;9.240;2023-02-12T14:35:31;9.40;99.90
6518;DHT22;3292;48.944;9.240;2023-02-12T14:38:00;9.40;99.90
6518;DHT22;3292;48.944;9.240;2023-02-12T14:40:40;9.40;99.90
6518;DHT22;3292;48.944;9.240;2023-02-12T14:43:29;9.40;99.90
6518;DHT22;3292;48.944;9.240;2023-02-12T14:48:50;9.50;99.90
6518;DHT22;3292;48.944;9.240;2023-02-12T14:51:29;9.50;99.90
6518;DHT22;3292;48.944;9.240;2023-02-12T14:54:01;9.50;99.90
6518;DHT22;3292;48.944;9.240;2023-02-12T14:56:48;9.50;99.90
6518;DHT22;3292;48.944;9.240;2023-02-12T14:59:25;9.50;99.90
6518;DHT22;3292;48.944;9.240;2023-02-12T15:02:01;9.40;99.90
6518;DHT22;3292;48.944;9.240;2023-02-12T15:04:43;9.40;99.90
6518;DHT22;3292;48.944;9.240;2023-02-12T15:07:27;9.40;99.90
6518;DHT22;3292;48.944;9.240;2023-02-12T15:10:00;9.40;99.90
6518;DHT22;3292;48.944;9.240;2023-02-12T15:12:39;9.40;99.90
6518;DHT22;3292;48.944;9.240;2023-02-12T15:15:18;9.40;99.90
6518;DHT22;3292;48.944;9.240;2023-02-12T15:17:58;9.40;99.90
6518;DHT22;3292;48.944;9.240;2023-02-12T15:20:37;9.40;99.90
6518;DHT22;3292;48.944;9.240;2023-02-12T15:23:31;9.40;99.90
6518;DHT22;3292;48.944;9.240;2023-02-12T15:26:03;9.40;99.90
6518;DHT22;3292;48.944;9.240;2023-02-12T15:31:29;9.40;99.90
6518;DHT22;3292;48.944;9.240;2023-02-12T15:34:04;9.40;99.90
6518;DHT22;3292;48.944;9.240;2023-02-12T15:36:46;9.50;99.90
6518;DHT22;3292;48.944;9.240;2023-02-12T15:39:20;9.50;99.90
6518;DHT22;3292;48.944;9.240;2023-02-12T15:41:50;9.50;99.90
6518;DHT22;3292;48.944;9.240;2023-02-12T15:44:33;9.50;99.90
6518;DHT22;3292;48.944;9.240;2023-02-12T15:47:13;9.50;99.90
6518;DHT22;3292;48.944;9.240;2023-02-12T15:49:59;9.50;99.90
6518;DHT22;3292;48.944;9.240;2023-02-12T15:52:33;9.40;99.90
6518;DHT22;3292;48.944;9.240;2023-02-12T15:55:03;9.40;99.90
6518;DHT22;3292;48.944;9.240;2023-02-12T15:57:31;9.40;99.90
6518;DHT22;3292;48.944;9.240;2023-02-12T16:00:09;9.30;99.90
6518;DHT22;3292;48.944;9.240;2023-02-12T16:02:37;9.30;99.90
6518;DHT22;3292;48.944;9.240;2023-02-12T16:05:15;9.20;99.90
6518;DHT22;3292;48.944;9.240;2023-02-12T16:07:46;9.20;99.90
6518;DHT22;3292;48.944;9.240;2023-02-12T16:10:22;9.20;99.90
6518;DHT22;3292;48.944;9.240;2023-02-12T16:12:59;9.20;99.90
6518;DHT22;3292;48.944;9.240;2023-02-12T16:15:30;9.20;99.90
6518;DHT22;3292;48.944;9.240;2023-02-12T16:18:20;9.20;99.90
6518;DHT22;3292;48.944;9.240;2023-02-12T16:21:00;9.20;99.90
6518;DHT22;3292;48.944;9.240;2023-02-12T16:23:45;9.20;99.90
6518;DHT22;3292;48.944;9.240;2023-02-12T16:26:25;9.10;99.90
6518;DHT22;3292;48.944;9.240;2023-02-12T16:29:15;9.00;99.90
6518;DHT22;3292;48.944;9.240;2023-02-12T16:31:56;9.00;99.90
6518;DHT22;3292;48.944;9.240;2023-02-12T16:34:39;8.90;99.90
6518;DHT22;3292;48.944;9.240;2023-02-12T16:37:39;8.90;99.90
6518;DHT22;3292;48.944;9.240;2023-02-12T16:40:30;8.80;99.90
6518;DHT22;3292;48.944;9.240;2023-02-12T16:46:03;8.70;99.90
6518;DHT22;3292;48.944;9.240;2023-02-12T16:48:37;8.60;99.90
6518;DHT22;3292;48.944;9.240;2023-02-12T16:51:23;8.50;99.90
6518;DHT22;3292;48.944;9.240;2023-02-12T16:53:55;8.50;99.90
6518;DHT22;3292;48.944;9.240;2023-02-12T16:56:36;8.50;99.90
6518;DHT22;3292;48.944;9.240;2023-02-12T16:59:05;8.40;99.90
6518;DHT22;3292;48.944;9.240;2023-02-12T17:01:34;8.40;99.90
6518;DHT22;3292;48.944;9.240;2023-02-12T17:04:12;8.40;99.90
6518;DHT22;3292;48.944;9.240;2023-02-12T17:06:40;8.30;99.90
6518;DHT22;3292;48.944;9.240;2023-02-12T17:09:17;8.30;99.90
6518;DHT22;3292;48.944;9.240;2023-02-12T17:11:48;8.20;99.90
6518;DHT22;3292;48.944;9.240;2023-02-12T17:14:17;8.10;99.90
6518;DHT22;3292;48.944;9.240;2023-02-12T17:16:46;8.10;99.90